Time;durP1;ratioP1;P1;durP2;ratioP2;P2;SDS_P1;SDS_P2;PMS_P1;PMS_P2;Temp;Humidity;BMP_temperature;BMP_pressure;BME280_temperature;BME280_humidity;BME280_pressure;Samples;Min_cycle;Max_cycle;Signal;HPM_P1;HPM_P2
2023/05/12 00:00:06;;;;;;;9.13;3.75;;;22.10;55.70;;;;;;4958030;28;20034;-75
2023/05/12 00:02:37;;;;;;;12.07;3.60;;;22.10;55.50;;;;;;4950839;28;20025;-75
2023/05/12 00:05:03;;;;;;;10.82;3.75;;;22.10;55.60;;;;;;4947236;28;20038;-74
2023/05/12 00:07:29;;;;;;;13.82;3.85;;;22.10;54.30;;;;;;4944863;28;20496;-75
2023/05/12 00:09:55;;;;;;;9.55;3.90;;;22.00;54.90;;;;;;4949542;28;20031;-76
2023/05/12 00:12:21;;;;;;;7.70;3.53;;;22.10;55.20;;;;;;4944711;28;20039;-75
2023/05/12 00:14:47;;;;;;;7.85;3.45;;;22.10;55.40;;;;;;4944734;28;21721;-75
2023/05/12 00:17:13;;;;;;;13.95;3.80;;;22.10;54.80;;;;;;4950657;28;20042;-75
2023/05/12 00:19:41;;;;;;;8.95;3.58;;;22.10;55.60;;;;;;4944188;28;20038;-75
2023/05/12 00:22:07;;;;;;;8.05;3.72;;;22.10;55.20;;;;;;4946726;28;20023;-74
2023/05/12 00:24:33;;;;;;;8.80;3.13;;;22.10;55.70;;;;;;4972610;28;20038;-75
2023/05/12 00:26:58;;;;;;;11.88;3.05;;;22.00;55.50;;;;;;4972079;28;20034;-74
2023/05/12 00:29:24;;;;;;;10.55;3.75;;;22.00;55.30;;;;;;4931746;28;20031;-75
2023/05/12 00:31:50;;;;;;;12.82;4.07;;;22.10;55.40;;;;;;4946545;28;20065;-75
2023/05/12 00:34:16;;;;;;;8.95;3.10;;;22.00;55.50;;;;;;4943997;28;20103;-75
2023/05/12 00:36:41;;;;;;;10.27;3.90;;;22.10;55.10;;;;;;4943459;28;20031;-75
2023/05/12 00:39:07;;;;;;;9.93;3.63;;;22.00;55.20;;;;;;4971021;28;20027;-75
2023/05/12 00:41:33;;;;;;;10.88;3.70;;;22.10;55.80;;;;;;4951919;28;20034;-75
2023/05/12 00:43:59;;;;;;;5.93;3.13;;;22.00;55.30;;;;;;4945685;28;20042;-75
2023/05/12 00:46:26;;;;;;;5.47;3.10;;;22.00;55.30;;;;;;4931943;28;20031;-75
2023/05/12 00:48:52;;;;;;;6.35;3.33;;;22.00;55.10;;;;;;4966285;28;20031;-75
2023/05/12 00:51:18;;;;;;;7.75;3.22;;;22.00;55.40;;;;;;4967256;28;20034;-75
2023/05/12 00:53:44;;;;;;;10.40;3.30;;;22.00;55.20;;;;;;4968573;28;20026;-75
2023/05/12 00:56:11;;;;;;;8.40;3.38;;;22.00;54.90;;;;;;4955107;28;20036;-75
2023/05/12 00:58:37;;;;;;;8.88;3.67;;;22.00;55.50;;;;;;4954930;28;20584;-75
2023/05/12 01:01:04;;;;;;;7.95;3.30;;;22.10;55.70;;;;;;4959046;28;20038;-75
2023/05/12 01:03:30;;;;;;;5.88;3.20;;;22.10;55.50;;;;;;4958780;28;20034;-75
2023/05/12 01:06:27;;;;;;;5.65;3.03;;;22.10;55.40;;;;;;4958830;28;20031;-75
2023/05/12 01:08:54;;;;;;;10.00;3.65;;;22.00;54.90;;;;;;4958468;28;20042;-75
2023/05/12 01:11:22;;;;;;;5.28;3.13;;;22.10;54.80;;;;;;4958853;28;20162;-75
2023/05/12 01:13:48;;;;;;;8.27;3.55;;;22.10;55.10;;;;;;4975776;28;20035;-75
2023/05/12 01:16:15;;;;;;;9.85;3.35;;;22.10;55.70;;;;;;4958689;28;20038;-74
2023/05/12 01:18:48;;;;;;;7.47;3.10;;;22.10;54.30;;;;;;4956294;28;20042;-76
2023/05/12 01:21:16;;;;;;;7.88;2.88;;;22.00;54.80;;;;;;4946811;28;20371;-76
2023/05/12 01:23:50;;;;;;;8.35;3.22;;;22.10;54.90;;;;;;4952235;28;20557;-75
2023/05/12 01:26:16;;;;;;;9.38;3.28;;;22.10;55.30;;;;;;4968863;28;20582;-75
2023/05/12 01:28:44;;;;;;;9.05;3.20;;;22.00;55.20;;;;;;4974287;28;20508;-75
2023/05/12 01:31:11;;;;;;;5.13;3.05;;;22.00;54.90;;;;;;4931312;28;20666;-75
2023/05/12 01:33:38;;;;;;;8.15;3.58;;;22.00;55.00;;;;;;4940201;28;20035;-75
2023/05/12 01:36:05;;;;;;;5.68;3.20;;;22.00;54.50;;;;;;4950307;28;20093;-75
2023/05/12 01:38:31;;;;;;;6.22;3.42;;;22.00;54.50;;;;;;4934425;28;20050;-75
2023/05/12 01:40:57;;;;;;;7.40;3.25;;;22.00;54.60;;;;;;4936008;28;20035;-75
2023/05/12 01:43:23;;;;;;;5.53;3.20;;;22.00;54.90;;;;;;4933702;28;20449;-75
2023/05/12 01:45:49;;;;;;;6.18;3.20;;;22.00;54.90;;;;;;4952046;28;20030;-75
2023/05/12 01:48:14;;;;;;;6.72;3.30;;;22.00;54.70;;;;;;4956889;28;20404;-74
2023/05/12 01:50:41;;;;;;;9.60;3.65;;;22.00;54.70;;;;;;4931853;28;20082;-74
2023/05/12 01:53:12;;;;;;;5.60;2.95;;;22.00;54.60;;;;;;4934504;28;20043;-75
2023/05/12 01:55:38;;;;;;;6.03;3.17;;;22.00;54.90;;;;;;4964155;28;20072;-75
2023/05/12 01:58:03;;;;;;;6.28;3.25;;;22.00;54.90;;;;;;4971067;28;20397;-76
2023/05/12 02:00:30;;;;;;;9.65;3.17;;;22.00;55.30;;;;;;4958583;28;20023;-75
2023/05/12 02:02:58;;;;;;;6.30;3.22;;;22.00;55.10;;;;;;4944143;28;20488;-75
2023/05/12 02:05:24;;;;;;;8.10;2.85;;;22.00;55.20;;;;;;4947694;28;20031;-75
2023/05/12 02:07:50;;;;;;;6.53;3.05;;;22.00;55.80;;;;;;4932300;28;20070;-74
2023/05/12 02:10:17;;;;;;;9.13;3.42;;;22.10;54.90;;;;;;4930749;28;20137;-74
2023/05/12 02:12:43;;;;;;;5.40;3.45;;;22.00;55.00;;;;;;4947415;28;20050;-74
2023/05/12 02:15:09;;;;;;;5.55;3.15;;;22.00;54.90;;;;;;4946929;28;20034;-74
2023/05/12 02:17:38;;;;;;;4.75;3.00;;;22.00;54.50;;;;;;4914218;28;20046;-75
2023/05/12 02:20:06;;;;;;;8.45;3.10;;;22.00;54.80;;;;;;4945655;28;20121;-74
2023/05/12 02:22:31;;;;;;;4.47;2.80;;;22.00;55.00;;;;;;4914273;28;20049;-75
2023/05/12 02:24:58;;;;;;;5.13;2.80;;;22.00;55.00;;;;;;4939927;28;20049;-75
2023/05/12 02:27:24;;;;;;;8.52;3.10;;;22.00;54.70;;;;;;4968537;28;20027;-75
2023/05/12 02:29:50;;;;;;;7.07;3.15;;;22.00;55.00;;;;;;4951607;28;20035;-75
2023/05/12 02:32:17;;;;;;;7.25;3.25;;;22.00;55.40;;;;;;4937100;28;20078;-75
2023/05/12 02:34:46;;;;;;;7.55;3.22;;;22.00;55.30;;;;;;4918370;28;20533;-75
2023/05/12 02:37:13;;;;;;;5.53;2.95;;;22.00;55.20;;;;;;4944635;28;20039;-74
2023/05/12 02:39:39;;;;;;;5.47;3.05;;;22.00;55.50;;;;;;4917821;28;20034;-74
2023/05/12 02:42:05;;;;;;;4.93;3.13;;;22.00;54.20;;;;;;4946192;28;20038;-74
2023/05/12 02:44:31;;;;;;;6.63;3.20;;;22.00;54.60;;;;;;4936561;28;20401;-74
2023/05/12 02:46:57;;;;;;;6.40;3.10;;;22.00;54.70;;;;;;4954096;28;20397;-74
2023/05/12 02:49:23;;;;;;;6.38;3.13;;;22.00;54.70;;;;;;4929496;28;20027;-74
2023/05/12 02:51:49;;;;;;;8.75;3.53;;;22.00;54.90;;;;;;4947048;28;20054;-74
2023/05/12 02:54:15;;;;;;;6.47;3.00;;;22.00;54.80;;;;;;4931161;28;20030;-75
2023/05/12 02:56:41;;;;;;;6.35;3.05;;;22.00;55.10;;;;;;4971377;28;20034;-74
2023/05/12 02:59:07;;;;;;;5.97;3.35;;;22.00;55.50;;;;;;4966994;28;20033;-74
2023/05/12 03:01:33;;;;;;;7.00;3.38;;;22.00;54.80;;;;;;4945274;28;20041;-74
2023/05/12 03:03:58;;;;;;;8.02;3.38;;;22.00;55.60;;;;;;4933633;28;20434;-74
2023/05/12 03:06:25;;;;;;;8.68;3.50;;;22.00;54.70;;;;;;4934174;28;20024;-74
2023/05/12 03:08:51;;;;;;;6.57;3.40;;;22.00;54.90;;;;;;4934643;28;20045;-74
2023/05/12 03:11:17;;;;;;;11.68;4.03;;;22.00;55.90;;;;;;4945848;28;20258;-74
2023/05/12 03:13:43;;;;;;;5.70;3.53;;;22.00;56.30;;;;;;4946550;28;20419;-74
2023/05/12 03:16:08;;;;;;;8.05;3.13;;;22.00;55.20;;;;;;4931282;28;20038;-74
2023/05/12 03:18:35;;;;;;;6.85;3.45;;;22.00;54.40;;;;;;4929335;28;20104;-74
2023/05/12 03:21:00;;;;;;;19.13;3.35;;;22.00;55.00;;;;;;4944948;28;20039;-74
2023/05/12 03:23:26;;;;;;;7.28;3.30;;;22.00;55.00;;;;;;4935182;28;20042;-74
2023/05/12 03:25:54;;;;;;;7.22;3.40;;;22.00;55.30;;;;;;4932813;28;20041;-76
2023/05/12 03:28:21;;;;;;;10.57;3.63;;;22.00;55.10;;;;;;4946092;28;20149;-76
2023/05/12 03:30:47;;;;;;;41.47;4.82;;;22.00;55.30;;;;;;4932440;28;20027;-75
2023/05/12 03:33:13;;;;;;;15.27;4.00;;;21.90;53.70;;;;;;4947363;28;20086;-75
2023/05/12 03:35:39;;;;;;;11.00;4.28;;;22.00;53.90;;;;;;4930072;28;20027;-75
2023/05/12 03:38:05;;;;;;;22.05;4.75;;;22.00;56.00;;;;;;4940174;28;20045;-74
2023/05/12 03:40:30;;;;;;;24.48;4.60;;;22.10;56.50;;;;;;4931493;28;20121;-76
2023/05/12 03:42:56;;;;;;;12.07;4.35;;;22.20;56.80;;;;;;4951224;28;20373;-74
2023/05/12 03:45:22;;;;;;;17.80;4.82;;;22.20;56.10;;;;;;4973392;28;20030;-74
2023/05/12 03:47:48;;;;;;;22.27;6.60;;;22.20;60.40;;;;;;4969754;28;20027;-75
2023/05/12 03:50:14;;;;;;;39.13;7.18;;;22.20;67.60;;;;;;4956109;28;20030;-75
2023/05/12 03:52:40;;;;;;;48.85;6.32;;;22.30;69.70;;;;;;4955807;28;20515;-75
2023/05/12 03:55:06;;;;;;;31.65;6.15;;;22.20;66.60;;;;;;4956059;28;20071;-74
2023/05/12 03:57:33;;;;;;;18.60;5.28;;;22.20;61.00;;;;;;4972077;28;20106;-75
2023/05/12 03:59:59;;;;;;;17.63;4.43;;;21.90;54.30;;;;;;4955801;28;20074;-75
2023/05/12 04:02:25;;;;;;;19.02;5.00;;;21.80;53.20;;;;;;4954417;28;20038;-74
2023/05/12 04:04:51;;;;;;;17.15;4.78;;;21.80;52.00;;;;;;4983403;28;20031;-74
2023/05/12 04:07:17;;;;;;;15.45;4.35;;;21.80;52.50;;;;;;4991707;23;20512;-73
2023/05/12 04:09:42;;;;;;;14.60;4.50;;;21.80;52.40;;;;;;4972913;28;20068;-72
2023/05/12 04:12:09;;;;;;;12.80;4.70;;;21.80;52.40;;;;;;4958671;28;20054;-72
2023/05/12 04:14:35;;;;;;;23.90;4.70;;;21.90;53.40;;;;;;4974295;28;20041;-73
2023/05/12 04:17:01;;;;;;;24.25;4.30;;;21.90;53.80;;;;;;4991086;28;20026;-73
2023/05/12 04:19:27;;;;;;;12.38;4.88;;;21.90;53.60;;;;;;4994585;28;20377;-73
2023/05/12 04:21:53;;;;;;;12.35;4.05;;;21.90;53.60;;;;;;4995968;28;20050;-73
2023/05/12 04:24:18;;;;;;;12.32;4.32;;;21.90;53.50;;;;;;4973243;28;20038;-73
2023/05/12 04:26:45;;;;;;;14.48;4.18;;;21.90;53.60;;;;;;4962004;28;20519;-72
2023/05/12 04:29:12;;;;;;;19.13;5.00;;;21.90;53.50;;;;;;4952512;28;20031;-71
2023/05/12 04:31:37;;;;;;;10.68;4.50;;;22.00;53.60;;;;;;4949117;28;20030;-72
2023/05/12 04:34:04;;;;;;;11.23;4.00;;;21.90;54.00;;;;;;4936457;28;20034;-72
2023/05/12 04:36:32;;;;;;;11.18;4.35;;;21.90;53.40;;;;;;4939504;28;20133;-72
2023/05/12 04:38:58;;;;;;;13.43;4.80;;;21.90;53.50;;;;;;4949802;28;20557;-71
2023/05/12 04:41:24;;;;;;;11.32;4.38;;;22.00;54.10;;;;;;4937161;28;20039;-72
2023/05/12 04:43:50;;;;;;;10.50;4.10;;;22.00;53.70;;;;;;4941177;28;20031;-72
2023/05/12 04:46:16;;;;;;;12.48;4.50;;;22.00;53.70;;;;;;4964207;28;20030;-72
2023/05/12 04:48:43;;;;;;;13.13;4.30;;;22.00;54.00;;;;;;4952424;28;20125;-72
2023/05/12 04:51:09;;;;;;;11.95;3.85;;;22.00;54.00;;;;;;4966596;28;20027;-73
2023/05/12 04:53:35;;;;;;;10.73;3.92;;;22.00;53.70;;;;;;4949868;28;20080;-72
2023/05/12 04:56:02;;;;;;;9.63;4.00;;;21.90;53.50;;;;;;4982242;28;20028;-72
2023/05/12 04:58:32;;;;;;;9.68;4.40;;;22.00;54.00;;;;;;4987616;28;20041;-72
2023/05/12 05:00:58;;;;;;;7.95;3.85;;;21.90;53.80;;;;;;4954020;28;20121;-71
2023/05/12 05:03:24;;;;;;;8.00;4.22;;;22.00;54.10;;;;;;4965801;28;20395;-72
2023/05/12 05:05:50;;;;;;;8.95;4.03;;;22.00;53.80;;;;;;4947646;28;20076;-72
2023/05/12 05:08:17;;;;;;;8.02;4.15;;;21.90;53.90;;;;;;4946418;28;20082;-72
2023/05/12 05:10:43;;;;;;;11.50;4.25;;;22.00;53.90;;;;;;4948933;28;20047;-72
2023/05/12 05:13:08;;;;;;;9.93;4.20;;;22.00;54.00;;;;;;4966871;28;20054;-72
2023/05/12 05:15:34;;;;;;;11.68;4.20;;;22.00;54.00;;;;;;4949195;28;20824;-72
2023/05/12 05:18:00;;;;;;;11.18;4.30;;;22.00;54.00;;;;;;4965590;28;20029;-72
2023/05/12 05:20:27;;;;;;;10.30;4.38;;;22.00;54.10;;;;;;4952542;28;20402;-73
2023/05/12 05:22:53;;;;;;;10.15;4.10;;;22.00;53.80;;;;;;4972097;28;20050;-73
2023/05/12 05:25:19;;;;;;;14.13;4.82;;;22.00;54.30;;;;;;4981211;28;20034;-73
2023/05/12 05:27:45;;;;;;;7.18;4.00;;;22.00;54.00;;;;;;4965046;28;20042;-73
2023/05/12 05:30:11;;;;;;;9.48;4.18;;;22.00;54.10;;;;;;4971212;28;20650;-73
2023/05/12 05:32:39;;;;;;;8.45;3.95;;;22.00;54.10;;;;;;4939790;28;20034;-73
2023/05/12 05:35:06;;;;;;;9.73;4.40;;;22.00;54.50;;;;;;4952834;28;20106;-73
2023/05/12 05:37:34;;;;;;;10.50;4.28;;;22.00;54.50;;;;;;4950832;28;20142;-73
2023/05/12 05:40:00;;;;;;;8.00;4.07;;;22.00;54.20;;;;;;4953100;28;20038;-72
2023/05/12 05:42:26;;;;;;;8.70;3.92;;;22.00;54.60;;;;;;4937634;28;20543;-71
2023/05/12 05:44:52;;;;;;;6.05;3.72;;;22.00;54.50;;;;;;4932419;28;20672;-72
2023/05/12 05:47:18;;;;;;;10.68;4.20;;;22.10;54.70;;;;;;4941054;28;20048;-72
2023/05/12 05:49:44;;;;;;;11.02;4.07;;;22.00;54.50;;;;;;4960586;28;20637;-72
2023/05/12 05:52:10;;;;;;;7.03;3.80;;;22.00;53.90;;;;;;4942013;28;20036;-73
2023/05/12 05:54:37;;;;;;;6.35;3.70;;;22.00;54.60;;;;;;4947545;28;20412;-73
2023/05/12 05:57:03;;;;;;;8.18;4.25;;;22.00;54.30;;;;;;4978404;28;20030;-72
2023/05/12 05:59:31;;;;;;;9.88;4.35;;;22.00;54.50;;;;;;4990358;28;20117;-72
2023/05/12 06:01:57;;;;;;;7.68;4.32;;;22.00;54.20;;;;;;4957160;28;20042;-73
2023/05/12 06:04:23;;;;;;;9.20;4.05;;;22.00;54.70;;;;;;4954045;28;20160;-73
2023/05/12 06:06:49;;;;;;;8.48;4.50;;;22.00;54.60;;;;;;4972619;28;20037;-73
2023/05/12 06:09:15;;;;;;;9.25;4.00;;;22.00;54.80;;;;;;4968858;28;20258;-72
2023/05/12 06:11:41;;;;;;;10.10;3.78;;;22.00;54.40;;;;;;4955997;28;20054;-73
2023/05/12 06:14:06;;;;;;;9.38;4.25;;;22.00;54.80;;;;;;4968539;28;20038;-73
2023/05/12 06:16:32;;;;;;;15.18;4.63;;;22.00;54.70;;;;;;4955509;28;20038;-72
2023/05/12 06:18:58;;;;;;;8.63;4.15;;;22.00;54.90;;;;;;4971356;28;20041;-72
2023/05/12 06:21:24;;;;;;;8.75;4.38;;;22.00;54.70;;;;;;4955395;28;20164;-72
2023/05/12 06:23:51;;;;;;;7.63;3.70;;;22.10;55.10;;;;;;4970500;28;20030;-72
2023/05/12 06:26:16;;;;;;;12.10;4.20;;;22.10;55.40;;;;;;4980754;28;20373;-72
2023/05/12 06:28:43;;;;;;;8.65;3.95;;;22.10;54.70;;;;;;4999598;28;20109;-73
2023/05/12 06:31:09;;;;;;;6.63;3.53;;;22.00;54.80;;;;;;4969007;28;20504;-72
2023/05/12 06:33:35;;;;;;;8.07;4.13;;;22.10;55.00;;;;;;4963363;28;20033;-72
2023/05/12 06:36:01;;;;;;;8.35;3.92;;;22.10;55.10;;;;;;4972793;28;20046;-73
2023/05/12 06:38:27;;;;;;;8.50;4.07;;;22.10;55.50;;;;;;4989059;28;20037;-73
2023/05/12 06:40:52;;;;;;;9.68;4.57;;;22.10;55.30;;;;;;4979852;28;20037;-72
2023/05/12 06:43:18;;;;;;;9.82;4.32;;;22.10;54.60;;;;;;4993721;28;20030;-73
2023/05/12 06:45:47;;;;;;;8.10;4.40;;;22.10;55.70;;;;;;4976521;28;20081;-72
2023/05/12 06:48:22;;;;;;;8.77;4.10;;;22.10;55.80;;;;;;4945344;28;20036;-72
2023/05/12 06:50:48;;;;;;;8.25;3.67;;;22.10;55.90;;;;;;4974776;28;20031;-73
2023/05/12 06:53:13;;;;;;;7.50;4.10;;;22.10;56.00;;;;;;4965068;28;20492;-72
2023/05/12 06:55:42;;;;;;;10.18;3.83;;;22.10;56.00;;;;;;4992569;28;20018;-73
2023/05/12 06:58:07;;;;;;;9.90;3.67;;;22.10;55.80;;;;;;4955670;28;20037;-72
2023/05/12 07:00:33;;;;;;;8.57;4.18;;;22.10;55.90;;;;;;4984873;28;20451;-72
2023/05/12 07:02:59;;;;;;;11.43;3.97;;;22.10;55.90;;;;;;4993640;28;20113;-72
2023/05/12 07:05:25;;;;;;;19.05;5.00;;;22.10;56.00;;;;;;4976137;28;20061;-73
2023/05/12 07:07:54;;;;;;;9.57;4.43;;;22.20;56.10;;;;;;4993026;28;20455;-73
2023/05/12 07:10:20;;;;;;;11.68;3.95;;;22.20;55.70;;;;;;4992545;28;20025;-73
2023/05/12 07:12:46;;;;;;;11.82;3.85;;;22.10;54.90;;;;;;4992500;28;20208;-73
2023/05/12 07:15:11;;;;;;;8.13;4.63;;;22.20;55.00;;;;;;4993420;28;20408;-72
2023/05/12 07:17:37;;;;;;;15.27;4.50;;;22.10;54.90;;;;;;4993146;28;20054;-72
2023/05/12 07:20:04;;;;;;;10.13;4.00;;;22.20;55.40;;;;;;4993377;28;20049;-74
2023/05/12 07:22:31;;;;;;;17.30;4.28;;;22.20;55.60;;;;;;4993173;28;20455;-73
2023/05/12 07:24:57;;;;;;;36.08;7.25;;;22.20;57.00;;;;;;4992049;28;20487;-71
2023/05/12 07:27:22;;;;;;;54.40;9.10;;;22.20;63.90;;;;;;4992872;28;20026;-71
2023/05/12 07:29:48;;;;;;;47.15;8.30;;;22.30;71.00;;;;;;4992351;28;20015;-72
2023/05/12 07:32:14;;;;;;;35.25;7.35;;;22.30;70.20;;;;;;4992957;28;20036;-72
2023/05/12 07:34:40;;;;;;;41.65;7.40;;;22.30;73.00;;;;;;4991668;28;20409;-73
2023/05/12 07:37:06;;;;;;;19.05;5.95;;;22.30;71.60;;;;;;4992714;28;20023;-70
2023/05/12 07:39:32;;;;;;;23.38;6.05;;;22.30;63.00;;;;;;4993129;28;20040;-71
2023/05/12 07:41:58;;;;;;;20.88;5.72;;;22.30;65.80;;;;;;4990970;28;20034;-70
2023/05/12 07:44:24;;;;;;;21.30;5.85;;;22.20;57.60;;;;;;4992058;28;20105;-70
2023/05/12 07:46:50;;;;;;;17.08;5.13;;;22.30;64.00;;;;;;4991803;28;20034;-71
2023/05/12 07:49:16;;;;;;;24.65;6.25;;;22.20;62.20;;;;;;4978743;28;20098;-71
2023/05/12 07:51:41;;;;;;;18.30;5.30;;;22.20;61.00;;;;;;4992651;28;20057;-70
2023/05/12 07:54:08;;;;;;;17.25;5.43;;;22.20;55.50;;;;;;4992685;28;20034;-70
2023/05/12 07:56:34;;;;;;;15.90;5.35;;;22.20;58.30;;;;;;4992765;28;20081;-70
2023/05/12 07:59:00;;;;;;;27.85;5.82;;;22.20;57.20;;;;;;4974113;28;20499;-70
2023/05/12 08:01:25;;;;;;;25.75;6.07;;;22.20;53.30;;;;;;4992589;28;20450;-69
2023/05/12 08:03:51;;;;;;;24.48;5.22;;;22.20;54.50;;;;;;4991246;28;20034;-70
2023/05/12 08:06:17;;;;;;;28.02;6.25;;;22.20;53.30;;;;;;4992485;28;20022;-70
2023/05/12 08:08:43;;;;;;;21.23;5.38;;;22.20;53.70;;;;;;4991800;28;20081;-70
2023/05/12 08:11:10;;;;;;;22.42;5.25;;;22.30;55.10;;;;;;4989690;28;20026;-70
2023/05/12 08:13:38;;;;;;;19.13;5.35;;;22.30;54.20;;;;;;4991507;28;20037;-71
2023/05/12 08:16:05;;;;;;;12.63;4.70;;;22.20;56.60;;;;;;4992437;28;20061;-71
2023/05/12 08:18:30;;;;;;;13.50;5.10;;;22.20;54.10;;;;;;4982670;28;20062;-70
2023/05/12 08:20:56;;;;;;;17.38;4.57;;;22.20;56.60;;;;;;4992229;28;20531;-70
2023/05/12 08:23:22;;;;;;;12.38;4.90;;;22.20;54.90;;;;;;4992081;28;20030;-70
2023/05/12 08:25:48;;;;;;;14.88;4.72;;;22.10;55.20;;;;;;4992078;28;20034;-70
2023/05/12 08:28:14;;;;;;;12.98;4.32;;;22.10;52.90;;;;;;4991699;28;20097;-71
2023/05/12 08:30:40;;;;;;;11.50;4.20;;;22.10;53.60;;;;;;4992064;28;20037;-77
2023/05/12 08:33:06;;;;;;;11.95;3.55;;;22.10;53.00;;;;;;4990974;28;20026;-74
2023/05/12 08:35:32;;;;;;;11.40;4.10;;;22.20;48.10;;;;;;4983059;28;20439;-73
2023/05/12 08:37:58;;;;;;;9.43;4.00;;;22.20;48.50;;;;;;4991769;28;20022;-75
2023/05/12 08:40:26;;;;;;;20.63;4.78;;;22.20;48.30;;;;;;4991421;28;20018;-75
2023/05/12 08:42:54;;;;;;;13.80;3.47;;;22.20;49.40;;;;;;4986598;28;20037;-74
2023/05/12 08:45:21;;;;;;;10.05;3.72;;;22.20;46.30;;;;;;4990182;28;20121;-75
2023/05/12 08:47:50;;;;;;;9.95;3.78;;;22.30;46.50;;;;;;4976731;28;20049;-76
2023/05/12 08:50:20;;;;;;;15.38;4.70;;;22.30;46.90;;;;;;4977221;28;20117;-75
2023/05/12 08:52:46;;;;;;;14.43;4.30;;;22.30;48.30;;;;;;4946051;28;20064;-75
2023/05/12 08:55:13;;;;;;;13.07;4.43;;;22.30;47.30;;;;;;4986278;28;20042;-75
2023/05/12 08:57:44;;;;;;;13.95;4.60;;;22.30;47.80;;;;;;4990551;28;20031;-75
2023/05/12 09:00:11;;;;;;;11.23;4.15;;;22.30;48.30;;;;;;4991167;28;20029;-75
2023/05/12 09:02:41;;;;;;;8.43;3.88;;;22.20;48.70;;;;;;4991561;28;20034;-75
2023/05/12 09:05:08;;;;;;;;;;;22.30;49.00;;;;;;4975069;28;20062;-75
2023/05/12 09:07:41;;;;;;;10.20;3.97;;;22.20;49.50;;;;;;4990100;28;19914;-75
2023/05/12 09:10:13;;;;;;;11.80;4.00;;;22.20;49.40;;;;;;4974471;28;20109;-74
2023/05/12 09:12:41;;;;;;;9.23;4.22;;;22.20;49.60;;;;;;4990550;28;20027;-75
2023/05/12 09:15:13;;;;;;;10.13;3.88;;;22.30;50.10;;;;;;4991686;28;20035;-75
2023/05/12 09:17:38;;;;;;;15.55;4.45;;;22.30;50.00;;;;;;4991396;28;20414;-74
2023/05/12 09:20:06;;;;;;;7.75;4.07;;;22.30;50.30;;;;;;4992680;28;20033;-74
2023/05/12 09:22:33;;;;;;;10.70;4.18;;;22.20;50.30;;;;;;4995570;28;20109;-74
2023/05/12 09:25:00;;;;;;;8.77;4.45;;;22.30;50.50;;;;;;4995426;28;20392;-75
2023/05/12 09:27:26;;;;;;;9.13;4.38;;;22.30;50.60;;;;;;4994990;28;20092;-75
2023/05/12 09:29:53;;;;;;;9.48;4.63;;;22.30;50.70;;;;;;4995406;28;20045;-75
2023/05/12 09:32:33;;;;;;;9.55;4.50;;;22.30;50.70;;;;;;4995278;28;20113;-74
2023/05/12 09:35:12;;;;;;;10.48;4.47;;;22.30;50.80;;;;;;4995278;28;20081;-74
2023/05/12 09:37:43;;;;;;;9.13;4.55;;;22.30;50.90;;;;;;4977802;28;20042;-75
2023/05/12 09:40:10;;;;;;;12.10;4.40;;;22.20;51.50;;;;;;4995181;28;20031;-74
2023/05/12 09:42:37;;;;;;;13.68;4.55;;;22.30;51.10;;;;;;4995273;28;20077;-75
2023/05/12 09:45:09;;;;;;;7.47;4.32;;;22.30;51.10;;;;;;4995362;28;20064;-75
2023/05/12 09:47:37;;;;;;;7.72;4.53;;;22.30;51.20;;;;;;4977250;28;20049;-75
2023/05/12 09:50:04;;;;;;;9.18;4.88;;;22.30;51.30;;;;;;4993891;28;20026;-75
2023/05/12 09:52:34;;;;;;;10.95;4.50;;;22.30;51.30;;;;;;4995446;28;20029;-75
2023/05/12 09:55:08;;;;;;;9.93;4.80;;;22.30;51.30;;;;;;4995032;28;20081;-75
2023/05/12 09:57:42;;;;;;;10.85;5.10;;;22.20;51.30;;;;;;4994649;28;20026;-76
2023/05/12 10:00:13;;;;;;;9.95;5.03;;;22.20;51.40;;;;;;4994846;28;20038;-75
2023/05/12 10:02:42;;;;;;;11.63;4.78;;;22.20;51.40;;;;;;4993638;28;20077;-75
2023/05/12 10:05:15;;;;;;;9.88;4.72;;;22.20;51.40;;;;;;4994699;28;20046;-75
2023/05/12 10:07:45;;;;;;;8.77;4.72;;;22.20;51.40;;;;;;4994409;28;20030;-76
2023/05/12 10:10:16;;;;;;;10.60;5.05;;;22.20;51.50;;;;;;4977390;28;20104;-75
2023/05/12 10:12:41;;;;;;;8.15;4.50;;;22.30;51.60;;;;;;4977203;28;20030;-75
2023/05/12 10:15:09;;;;;;;8.02;4.72;;;22.20;51.50;;;;;;4994602;28;20038;-75
2023/05/12 10:17:36;;;;;;;10.30;4.78;;;22.30;51.60;;;;;;4994144;28;20031;-75
2023/05/12 10:20:05;;;;;;;8.25;4.53;;;22.30;51.40;;;;;;4994461;28;20034;-75
2023/05/12 10:22:33;;;;;;;9.45;5.68;;;22.30;51.60;;;;;;4993308;28;20091;-74
2023/05/12 10:25:02;;;;;;;11.05;5.18;;;22.30;51.60;;;;;;4994378;28;20041;-75
2023/05/12 10:27:31;;;;;;;9.52;4.63;;;22.30;51.60;;;;;;4994137;28;20027;-75
2023/05/12 10:29:57;;;;;;;10.93;5.20;;;22.30;51.60;;;;;;4977056;28;20034;-75
2023/05/12 10:32:23;;;;;;;9.65;5.05;;;22.20;51.50;;;;;;4994218;28;20030;-75
2023/05/12 10:34:50;;;;;;;9.00;5.20;;;22.30;51.70;;;;;;4993103;28;20370;-75
2023/05/12 10:37:16;;;;;;;8.77;4.93;;;22.30;51.60;;;;;;4944506;28;20045;-75
2023/05/12 10:39:50;;;;;;;8.30;5.10;;;22.20;51.70;;;;;;4994135;28;20038;-75
2023/05/12 10:42:24;;;;;;;10.00;5.13;;;22.30;51.80;;;;;;4976706;28;20062;-75
2023/05/12 10:44:55;;;;;;;7.43;5.00;;;22.20;52.20;;;;;;4976674;28;20121;-74
2023/05/12 10:47:36;;;;;;;8.88;5.18;;;22.30;51.80;;;;;;4976383;28;20062;-74
2023/05/12 10:50:02;;;;;;;7.88;4.60;;;22.20;51.90;;;;;;4994009;28;20030;-75
2023/05/12 10:52:28;;;;;;;7.50;4.53;;;22.20;52.00;;;;;;4992677;28;20512;-75
2023/05/12 10:55:02;;;;;;;9.20;4.35;;;22.20;52.50;;;;;;4976915;28;20077;-74
2023/05/12 10:57:30;;;;;;;8.50;4.85;;;22.20;52.00;;;;;;4976121;28;20116;-74
2023/05/12 10:59:58;;;;;;;7.97;4.60;;;22.20;52.00;;;;;;4993778;28;20500;-74
2023/05/12 11:02:29;;;;;;;8.60;4.47;;;22.20;52.10;;;;;;4976248;28;20058;-75
2023/05/12 11:04:58;;;;;;;8.93;4.45;;;22.20;51.90;;;;;;4993642;28;20035;-74
2023/05/12 11:07:28;;;;;;;;;;;22.20;52.10;;;;;;4993803;28;20377;-75
2023/05/12 11:09:55;;;;;;;;;;;22.20;52.00;;;;;;4994215;28;20438;-75
2023/05/12 11:12:21;;;;;;;7.45;4.22;;;22.30;52.00;;;;;;4993776;28;20321;-74
2023/05/12 11:14:47;;;;;;;8.43;4.45;;;22.30;51.90;;;;;;4993496;28;20030;-74
2023/05/12 11:17:14;;;;;;;7.60;4.20;;;22.20;52.00;;;;;;4993132;28;20026;-74
2023/05/12 11:19:45;;;;;;;9.20;4.30;;;22.30;52.10;;;;;;4993279;28;20076;-75
2023/05/12 11:22:11;;;;;;;8.75;4.30;;;22.30;52.10;;;;;;4993311;28;20037;-75
2023/05/12 11:24:39;;;;;;;8.30;4.70;;;22.30;51.90;;;;;;4993391;28;20030;-75
2023/05/12 11:27:06;;;;;;;7.63;4.43;;;22.20;52.00;;;;;;4992907;28;20027;-75
2023/05/12 11:29:33;;;;;;;10.07;5.10;;;22.30;52.00;;;;;;4992137;28;20027;-75
2023/05/12 11:31:59;;;;;;;7.60;4.32;;;22.20;52.10;;;;;;4993182;28;20022;-74
2023/05/12 11:34:26;;;;;;;6.65;4.28;;;22.30;52.10;;;;;;4992987;28;20049;-75
2023/05/12 11:36:54;;;;;;;7.47;4.20;;;22.20;51.80;;;;;;4975336;28;20034;-75
2023/05/12 11:39:31;;;;;;;6.75;3.97;;;22.30;52.20;;;;;;4993067;28;20169;-75
2023/05/12 11:42:05;;;;;;;6.00;4.28;;;22.20;52.10;;;;;;4993019;28;20443;-75
2023/05/12 11:44:31;;;;;;;7.22;4.40;;;22.30;52.20;;;;;;4959315;28;20104;-75
2023/05/12 11:46:58;;;;;;;8.88;4.60;;;22.30;52.10;;;;;;4992382;28;20030;-75
2023/05/12 11:49:24;;;;;;;6.68;3.95;;;22.20;51.90;;;;;;4993119;28;20038;-75
2023/05/12 11:51:52;;;;;;;7.65;4.20;;;22.30;52.20;;;;;;4975712;28;20631;-75
2023/05/12 11:54:19;;;;;;;7.43;4.55;;;22.20;52.10;;;;;;4992775;28;20041;-75
2023/05/12 11:56:50;;;;;;;9.52;4.43;;;22.30;52.30;;;;;;4991375;28;20026;-75
2023/05/12 11:59:34;;;;;;;5.80;3.88;;;22.20;52.10;;;;;;4992467;28;20038;-75
2023/05/12 12:02:02;;;;;;;8.70;4.43;;;22.20;52.10;;;;;;4975465;28;20034;-74
2023/05/12 12:04:40;;;;;;;7.07;4.10;;;22.20;52.20;;;;;;4975087;28;20026;-75
2023/05/12 12:07:08;;;;;;;8.10;4.13;;;22.20;52.10;;;;;;4974833;28;20038;-73
2023/05/12 12:09:41;;;;;;;6.70;4.20;;;22.20;52.30;;;;;;4975303;28;20022;-74
2023/05/12 12:12:09;;;;;;;7.38;4.32;;;22.20;52.20;;;;;;4975222;28;20064;-74
2023/05/12 12:14:40;;;;;;;6.80;4.18;;;22.20;52.20;;;;;;4992511;28;20030;-74
2023/05/12 12:17:06;;;;;;;8.82;4.40;;;22.20;52.20;;;;;;4992086;28;20050;-74
2023/05/12 12:19:34;;;;;;;6.90;4.07;;;22.30;52.00;;;;;;4992379;28;20485;-74
2023/05/12 12:22:03;;;;;;;6.28;4.03;;;22.30;52.20;;;;;;4974990;28;20281;-75
2023/05/12 12:24:29;;;;;;;7.30;4.35;;;22.20;52.10;;;;;;4992162;28;20142;-75
2023/05/12 12:26:55;;;;;;;7.93;4.20;;;22.20;52.10;;;;;;4974531;28;20030;-75
2023/05/12 12:29:23;;;;;;;7.32;3.97;;;22.30;52.20;;;;;;4992162;28;20053;-75
2023/05/12 12:31:49;;;;;;;4.97;3.35;;;22.20;52.10;;;;;;4974906;28;20447;-75
2023/05/12 12:34:15;;;;;;;7.95;3.95;;;22.20;52.10;;;;;;4992150;28;20054;-75
2023/05/12 12:36:45;;;;;;;6.95;4.03;;;22.30;52.20;;;;;;4992141;28;20022;-75
2023/05/12 12:39:12;;;;;;;6.63;3.60;;;22.20;52.20;;;;;;4974664;28;20077;-75
2023/05/12 12:41:37;;;;;;;6.30;3.80;;;22.20;52.20;;;;;;4991999;28;20026;-75